Time;durP1;ratioP1;P1;durP2;ratioP2;P2;SDS_P1;SDS_P2;PMS_P1;PMS_P2;Temp;Humidity;BMP_temperature;BMP_pressure;BME280_temperature;BME280_humidity;BME280_pressure;Samples;Min_cycle;Max_cycle;Signal;HPM_P1;HPM_P2
2022/12/20 00:00:35;;;;;;;;;;;;;;;;;;4451684;32;19982;-75
2022/12/20 00:03:00;;;;;;;;;;;;;;;;;;4437778;32;19945;-74
2022/12/20 00:05:26;;;;;;;;;;;;;;;;;;4452080;32;20326;-74
2022/12/20 00:07:51;;;;;;;;;;;;;;;;;;4451661;32;20014;-74
2022/12/20 00:10:16;;;;;;;;;;;;;;;;;;4451550;32;20319;-74
2022/12/20 00:12:41;;;;;;;;;;;;;;;;;;4451882;32;19937;-73
2022/12/20 00:15:06;;;;;;;;;;;;;;;;;;4438744;32;19992;-73
2022/12/20 00:17:31;;;;;;;;;;;;;;;;;;4452057;32;19954;-73
2022/12/20 00:19:56;;;;;;;;;;;;;;;;;;4451728;32;19971;-74
2022/12/20 00:22:21;;;;;;;;;;;;;;;;;;4438462;32;20015;-74
2022/12/20 00:24:46;;;;;;;;;;;;;;;;;;4452286;32;19936;-73
2022/12/20 00:27:12;;;;;;;;;;;;;;;;;;4453099;32;19928;-74
2022/12/20 00:29:37;;;;;;;;;;;;;;;;;;4453909;32;20344;-74
2022/12/20 00:32:02;;;;;;;;;;;;;;;;;;4452503;32;19962;-74
2022/12/20 00:34:27;;;;;;;;;;;;;;;;;;4437753;32;19940;-74
2022/12/20 00:36:52;;;;;;;;;;;;;;;;;;4451740;32;19988;-75
2022/12/20 00:39:17;;;;;;;;;;;;;;;;;;4452488;32;19969;-74
2022/12/20 00:41:42;;;;;;;;;;;;;;;;;;4452820;32;19988;-74
2022/12/20 00:44:07;;;;;;;;;;;;;;;;;;4438252;32;19961;-74
2022/12/20 00:46:34;;;;;;;;;;;;;;;;;;4455843;32;19950;-73
2022/12/20 00:48:59;;;;;;;;;;;;;;;;;;4452531;32;19947;-74
2022/12/20 00:51:24;;;;;;;;;;;;;;;;;;4452627;32;19948;-74
2022/12/20 00:53:49;;;;;;;;;;;;;;;;;;4452422;32;19936;-74
2022/12/20 00:56:14;;;;;;;;;;;;;;;;;;4451325;32;19964;-74
2022/12/20 00:58:39;;;;;;;;;;;;;;;;;;4450961;32;19937;-74
2022/12/20 01:01:04;;;;;;;;;;;;;;;;;;4451305;32;19951;-75
2022/12/20 01:03:30;;;;;;;;;;;;;;;;;;4453356;32;19992;-76
2022/12/20 01:05:55;;;;;;;;;;;;;;;;;;4452345;32;19978;-77
2022/12/20 01:08:20;;;;;;;;;;;;;;;;;;4451981;32;19945;-77
2022/12/20 01:10:45;;;;;;;;;;;;;;;;;;4456038;32;20038;-77
2022/12/20 01:13:10;;;;;;;;;;;;;;;;;;4453990;32;19932;-77
2022/12/20 01:15:35;;;;;;;;;;;;;;;;;;4455142;32;19968;-76
2022/12/20 01:18:00;;;;;;;;;;;;;;;;;;4453449;32;19947;-76
2022/12/20 01:20:25;;;;;;;;;;;;;;;;;;4454802;32;19987;-78
2022/12/20 01:22:51;;;;;;;;;;;;;;;;;;4453748;32;20363;-77
2022/12/20 01:25:16;;;;;;;;;;;;;;;;;;4439192;32;19936;-76
2022/12/20 01:27:41;;;;;;;;;;;;;;;;;;4454656;32;19936;-77
2022/12/20 01:30:06;;;;;;;;;;;;;;;;;;4455297;32;19968;-77
2022/12/20 01:32:31;;;;;;;;;;;;;;;;;;4453845;32;19937;-77
2022/12/20 01:34:56;;;;;;;;;;;;;;;;;;4453982;32;20253;-77
2022/12/20 01:37:21;;;;;;;;;;;;;;;;;;4455606;32;20000;-76
2022/12/20 01:39:46;;;;;;;;;;;;;;;;;;4455289;32;19941;-75
2022/12/20 01:42:11;;;;;;;;;;;;;;;;;;4454348;32;20013;-75
2022/12/20 01:44:36;;;;;;;;;;;;;;;;;;4454085;32;19953;-76
2022/12/20 01:47:02;;;;;;;;;;;;;;;;;;4439837;32;19937;-75
2022/12/20 01:49:27;;;;;;;;;;;;;;;;;;4454622;32;19940;-75
2022/12/20 01:51:52;;;;;;;;;;;;;;;;;;4455347;32;19933;-75
2022/12/20 01:54:17;;;;;;;;;;;;;;;;;;4454508;32;19945;-75
2022/12/20 01:56:43;;;;;;;;;;;;;;;;;;4453955;32;20290;-75
2022/12/20 01:59:08;;;;;;;;;;;;;;;;;;4454071;32;19993;-74
2022/12/20 02:01:33;;;;;;;;;;;;;;;;;;4454006;32;19936;-75
2022/12/20 02:03:58;;;;;;;;;;;;;;;;;;4453650;32;19936;-74
2022/12/20 02:06:23;;;;;;;;;;;;;;;;;;4439958;32;19988;-75
2022/12/20 02:08:49;;;;;;;;;;;;;;;;;;4453654;32;19932;-75
2022/12/20 02:11:14;;;;;;;;;;;;;;;;;;4453040;32;20592;-75
2022/12/20 02:13:40;;;;;;;;;;;;;;;;;;4454714;32;19990;-75
2022/12/20 02:16:05;;;;;;;;;;;;;;;;;;4454864;32;19932;-74
2022/12/20 02:18:30;;;;;;;;;;;;;;;;;;4451754;32;20361;-74
2022/12/20 02:20:55;;;;;;;;;;;;;;;;;;4453050;32;19986;-75
2022/12/20 02:23:20;;;;;;;;;;;;;;;;;;4453510;32;19937;-75
2022/12/20 02:25:45;;;;;;;;;;;;;;;;;;4454137;32;19964;-74
2022/12/20 02:28:11;;;;;;;;;;;;;;;;;;4453012;32;20039;-76
2022/12/20 02:30:36;;;;;;;;;;;;;;;;;;4454483;32;19972;-75
2022/12/20 02:33:01;;;;;;;;;;;;;;;;;;4454748;32;19938;-75
2022/12/20 02:35:26;;;;;;;;;;;;;;;;;;4453806;32;19983;-75
2022/12/20 02:37:51;;;;;;;;;;;;;;;;;;4454403;32;20254;-74
2022/12/20 02:40:16;;;;;;;;;;;;;;;;;;4454244;32;19953;-74
2022/12/20 02:42:42;;;;;;;;;;;;;;;;;;4452836;32;20329;-76
2022/12/20 02:45:15;;;;;;;;;;;;;;;;;;4453286;32;19993;-74
2022/12/20 02:47:41;;;;;;;;;;;;;;;;;;4452525;32;19965;-75
2022/12/20 02:50:06;;;;;;;;;;;;;;;;;;4453659;32;20011;-74
2022/12/20 02:52:31;;;;;;;;;;;;;;;;;;4455579;32;19936;-73
2022/12/20 02:54:56;;;;;;;;;;;;;;;;;;4455398;32;19993;-74
2022/12/20 02:57:21;;;;;;;;;;;;;;;;;;4455034;32;19932;-74
2022/12/20 02:59:46;;;;;;;;;;;;;;;;;;4453203;32;19936;-73
2022/12/20 03:02:11;;;;;;;;;;;;;;;;;;4453661;32;19970;-74
2022/12/20 03:04:36;;;;;;;;;;;;;;;;;;4452357;32;20287;-74
2022/12/20 03:07:01;;;;;;;;;;;;;;;;;;4453122;32;19932;-73
2022/12/20 03:09:27;;;;;;;;;;;;;;;;;;4452823;32;19937;-74
2022/12/20 03:11:52;;;;;;;;;;;;;;;;;;4453235;32;19952;-74
2022/12/20 03:14:17;;;;;;;;;;;;;;;;;;4451230;32;19956;-74
2022/12/20 03:16:42;;;;;;;;;;;;;;;;;;4452366;32;19969;-75
2022/12/20 03:19:07;;;;;;;;;;;;;;;;;;4454123;32;19932;-75
2022/12/20 03:21:32;;;;;;;;;;;;;;;;;;4452973;32;19969;-74
2022/12/20 03:23:57;;;;;;;;;;;;;;;;;;4452106;32;19992;-74
2022/12/20 03:26:22;;;;;;;;;;;;;;;;;;4452729;32;20293;-74
2022/12/20 03:28:47;;;;;;;;;;;;;;;;;;4451759;32;20355;-74
2022/12/20 03:31:13;;;;;;;;;;;;;;;;;;4451925;32;20027;-74
2022/12/20 03:33:38;;;;;;;;;;;;;;;;;;4451511;32;20298;-74
2022/12/20 03:36:03;;;;;;;;;;;;;;;;;;4452283;32;19932;-74
2022/12/20 03:38:28;;;;;;;;;;;;;;;;;;4452290;32;19937;-74
2022/12/20 03:40:53;;;;;;;;;;;;;;;;;;4453701;32;20290;-75
2022/12/20 03:43:18;;;;;;;;;;;;;;;;;;4451085;32;19992;-74
2022/12/20 03:45:43;;;;;;;;;;;;;;;;;;4453416;32;19952;-74
2022/12/20 03:48:09;;;;;;;;;;;;;;;;;;4453381;32;19943;-75
2022/12/20 03:50:35;;;;;;;;;;;;;;;;;;4452097;32;19940;-74
2022/12/20 03:53:00;;;;;;;;;;;;;;;;;;4453065;32;19936;-75
2022/12/20 03:55:25;;;;;;;;;;;;;;;;;;4451943;32;19975;-74
2022/12/20 03:57:50;;;;;;;;;;;;;;;;;;4452100;32;19949;-74
2022/12/20 04:00:15;;;;;;;;;;;;;;;;;;4452263;32;19999;-73
2022/12/20 04:02:41;;;;;;;;;;;;;;;;;;4451832;32;19932;-74
2022/12/20 04:05:06;;;;;;;;;;;;;;;;;;4452496;32;20328;-74
2022/12/20 04:07:31;;;;;;;;;;;;;;;;;;4451791;32;19940;-74
2022/12/20 04:09:56;;;;;;;;;;;;;;;;;;4452596;32;20352;-74
2022/12/20 04:12:21;;;;;;;;;;;;;;;;;;4453788;32;19967;-73
2022/12/20 04:14:46;;;;;;;;;;;;;;;;;;4452631;32;19991;-73
2022/12/20 04:17:11;;;;;;;;;;;;;;;;;;4449992;32;20310;-75
2022/12/20 04:19:36;;;;;;;;;;;;;;;;;;4451954;32;19974;-75
2022/12/20 04:22:01;;;;;;;;;;;;;;;;;;4449820;32;20322;-73
2022/12/20 04:24:27;;;;;;;;;;;;;;;;;;4451333;32;19933;-74
2022/12/20 04:26:52;;;;;;;;;;;;;;;;;;4450528;32;19941;-74
2022/12/20 04:29:17;;;;;;;;;;;;;;;;;;4452719;32;19986;-74
2022/12/20 04:31:42;;;;;;;;;;;;;;;;;;4453226;32;19933;-74
2022/12/20 04:34:07;;;;;;;;;;;;;;;;;;4452007;32;19951;-73
2022/12/20 04:36:32;;;;;;;;;;;;;;;;;;4451787;32;19951;-74
2022/12/20 04:38:57;;;;;;;;;;;;;;;;;;4453394;32;19951;-74
2022/12/20 04:41:22;;;;;;;;;;;;;;;;;;4451787;32;19984;-75
2022/12/20 04:43:48;;;;;;;;;;;;;;;;;;4450695;32;19937;-75
2022/12/20 04:46:13;;;;;;;;;;;;;;;;;;4450987;32;19995;-74
2022/12/20 04:48:39;;;;;;;;;;;;;;;;;;4450015;32;19941;-74
2022/12/20 04:51:04;;;;;;;;;;;;;;;;;;4450362;32;19947;-74
2022/12/20 04:53:47;;;;;;;;;;;;;;;;;;4452148;32;19944;-74
2022/12/20 04:56:12;;;;;;;;;;;;;;;;;;4452132;32;19940;-75
2022/12/20 04:58:38;;;;;;;;;;;;;;;;;;4450793;32;19932;-75
2022/12/20 05:01:03;;;;;;;;;;;;;;;;;;4451760;32;20017;-74
2022/12/20 05:03:28;;;;;;;;;;;;;;;;;;4450511;32;19933;-74
2022/12/20 05:05:53;;;;;;;;;;;;;;;;;;4451156;32;19943;-74
2022/12/20 05:08:18;;;;;;;;;;;;;;;;;;4449339;32;19943;-73
2022/12/20 05:10:43;;;;;;;;;;;;;;;;;;4449409;32;19985;-73
2022/12/20 05:13:08;;;;;;;;;;;;;;;;;;4450724;32;20303;-74
2022/12/20 05:15:33;;;;;;;;;;;;;;;;;;4450377;32;19937;-74
2022/12/20 05:17:59;;;;;;;;;;;;;;;;;;4450330;32;19942;-74
2022/12/20 05:20:24;;;;;;;;;;;;;;;;;;4451618;32;19936;-74
2022/12/20 05:28:17;;;;;;;;;;;;;;;;;;4450160;32;19928;-73
2022/12/20 05:30:42;;;;;;;;;;;;;;;;;;4448879;32;19937;-74
2022/12/20 05:33:07;;;;;;;;;;;;;;;;;;4450256;32;19932;-74
2022/12/20 05:35:32;;;;;;;;;;;;;;;;;;4449941;32;19932;-74
2022/12/20 05:37:57;;;;;;;;;;;;;;;;;;4449910;32;19937;-73
2022/12/20 05:40:23;;;;;;;;;;;;;;;;;;4448716;32;19947;-75
2022/12/20 05:42:48;;;;;;;;;;;;;;;;;;4449776;32;19933;-74
2022/12/20 05:45:13;;;;;;;;;;;;;;;;;;4451698;32;20260;-74
2022/12/20 05:47:38;;;;;;;;;;;;;;;;;;4451952;32;19984;-75
2022/12/20 05:50:04;;;;;;;;;;;;;;;;;;4449639;32;19947;-74
2022/12/20 05:52:29;;;;;;;;;;;;;;;;;;4449793;32;19940;-74
2022/12/20 05:54:54;;;;;;;;;;;;;;;;;;4451291;32;19955;-74
2022/12/20 05:57:19;;;;;;;;;;;;;;;;;;4453373;32;19951;-74
2022/12/20 05:59:44;;;;;;;;;;;;;;;;;;4454168;32;20004;-74
2022/12/20 06:02:09;;;;;;;;;;;;;;;;;;4452582;32;19951;-74
2022/12/20 06:04:34;;;;;;;;;;;;;;;;;;4452884;32;20263;-75
2022/12/20 06:07:00;;;;;;;;;;;;;;;;;;4453748;32;19968;-74
2022/12/20 06:09:25;;;;;;;;;;;;;;;;;;4453132;32;19980;-74
2022/12/20 06:11:50;;;;;;;;;;;;;;;;;;4452563;32;19988;-74
2022/12/20 06:14:15;;;;;;;;;;;;;;;;;;4455298;32;19976;-74
2022/12/20 06:16:40;;;;;;;;;;;;;;;;;;4452653;32;19940;-75
2022/12/20 06:19:05;;;;;;;;;;;;;;;;;;4453754;32;19967;-75
2022/12/20 06:21:31;;;;;;;;;;;;;;;;;;4451725;32;19940;-73
2022/12/20 06:23:57;;;;;;;;;;;;;;;;;;4454222;32;19947;-74
2022/12/20 06:26:22;;;;;;;;;;;;;;;;;;4456439;32;19933;-73
2022/12/20 06:28:51;;;;;;;;;;;;;;;;;;4456179;32;20280;-73
2022/12/20 06:31:16;;;;;;;;;;;;;;;;;;4456711;32;20128;-73
2022/12/20 06:33:41;;;;;;;;;;;;;;;;;;4456298;32;19940;-73
2022/12/20 06:36:06;;;;;;;;;;;;;;;;;;4456368;32;20028;-74
2022/12/20 06:38:31;;;;;;;;;;;;;;;;;;4453195;32;19936;-74
2022/12/20 06:40:56;;;;;;;;;;;;;;;;;;4450878;32;19987;-73
2022/12/20 06:43:21;;;;;;;;;;;;;;;;;;4452182;32;19932;-73
2022/12/20 06:45:46;;;;;;;;;;;;;;;;;;4452017;32;19956;-74
2022/12/20 06:48:12;;;;;;;;;;;;;;;;;;4453486;32;19951;-75
2022/12/20 06:50:37;;;;;;;;;;;;;;;;;;4451760;32;20382;-74
2022/12/20 06:53:02;;;;;;;;;;;;;;;;;;4452392;32;19960;-74
2022/12/20 06:55:27;;;;;;;;;;;;;;;;;;4452560;32;19973;-73
2022/12/20 06:57:54;;;;;;;;;;;;;;;;;;4451811;32;19937;-74
2022/12/20 07:00:19;;;;;;;;;;;;;;;;;;4451355;32;19932;-74
2022/12/20 07:02:44;;;;;;;;;;;;;;;;;;4451823;32;19964;-73
2022/12/20 07:05:09;;;;;;;;;;;;;;;;;;4450175;32;20024;-72
2022/12/20 07:07:35;;;;;;;;;;;;;;;;;;4451488;32;19936;-73
2022/12/20 07:10:00;;;;;;;;;;;;;;;;;;4452134;32;19963;-74
2022/12/20 07:12:25;;;;;;;;;;;;;;;;;;4453826;32;20372;-74
2022/12/20 07:14:50;;;;;;;;;;;;;;;;;;4451677;32;19947;-75
2022/12/20 07:17:16;;;;;;;;;;;;;;;;;;4452855;32;19988;-74
2022/12/20 07:19:41;;;;;;;;;;;;;;;;;;4453172;32;20283;-73
2022/12/20 07:22:06;;;;;;;;;;;;;;;;;;4453256;32;19960;-74
2022/12/20 07:24:31;;;;;;;;;;;;;;;;;;4452264;32;20260;-75
2022/12/20 07:26:57;;;;;;;;;;;;;;;;;;4452027;32;19951;-74
2022/12/20 07:29:22;;;;;;;;;;;;;;;;;;4452188;32;19932;-74
2022/12/20 07:31:47;;;;;;;;;;;;;;;;;;4451833;32;19966;-75
2022/12/20 07:34:12;;;;;;;;;;;;;;;;;;4451613;32;19945;-76
2022/12/20 07:36:37;;;;;;;;;;;;;;;;;;4450716;32;19950;-73
2022/12/20 07:39:02;;;;;;;;;;;;;;;;;;4451994;32;20317;-74
2022/12/20 07:41:27;;;;;;;;;;;;;;;;;;4450730;32;19973;-74
2022/12/20 07:43:53;;;;;;;;;;;;;;;;;;4450555;32;19944;-76
2022/12/20 07:46:18;;;;;;;;;;;;;;;;;;4450723;32;20233;-76
2022/12/20 07:48:43;;;;;;;;;;;;;;;;;;4451304;32;20036;-75
2022/12/20 07:51:08;;;;;;;;;;;;;;;;;;4451594;32;19951;-77
2022/12/20 07:53:33;;;;;;;;;;;;;;;;;;4451668;32;19936;-78
2022/12/20 07:55:58;;;;;;;;;;;;;;;;;;4451603;32;19956;-80
2022/12/20 07:58:24;;;;;;;;;;;;;;;;;;4451774;32;19933;-79
2022/12/20 08:00:49;;;;;;;;;;;;;;;;;;4451961;32;19967;-80
2022/12/20 08:03:14;;;;;;;;;;;;;;;;;;4449940;32;19940;-80
2022/12/20 08:05:39;;;;;;;;;;;;;;;;;;4451118;32;19992;-80
2022/12/20 08:08:05;;;;;;;;;;;;;;;;;;4451261;32;19940;-80
2022/12/20 08:10:30;;;;;;;;;;;;;;;;;;4451688;32;19936;-80
2022/12/20 08:12:55;;;;;;;;;;;;;;;;;;4451057;32;20333;-80
2022/12/20 08:15:21;;;;;;;;;;;;;;;;;;4452816;32;19999;-79
2022/12/20 08:17:47;;;;;;;;;;;;;;;;;;4450005;32;19932;-80
2022/12/20 08:20:12;;;;;;;;;;;;;;;;;;4451417;32;20338;-79
2022/12/20 08:22:37;;;;;;;;;;;;;;;;;;4449877;32;19936;-80
2022/12/20 08:25:03;;;;;;;;;;;;;;;;;;4451728;32;19969;-80
2022/12/20 08:27:28;;;;;;;;;;;;;;;;;;4452671;32;19979;-80
2022/12/20 08:29:53;;;;;;;;;;;;;;;;;;4449301;32;19936;-78
2022/12/20 08:32:18;;;;;;;;;;;;;;;;;;4451072;32;19950;-81
2022/12/20 08:34:44;;;;;;;;;;;;;;;;;;4452122;32;19984;-79
2022/12/20 08:37:09;;;;;;;;;;;;;;;;;;4451528;32;19999;-80
2022/12/20 08:39:34;;;;;;;;;;;;;;;;;;4452215;32;20258;-80
2022/12/20 08:41:59;;;;;;;;;;;;;;;;;;4450808;32;19947;-80
2022/12/20 08:44:24;;;;;;;;;;;;;;;;;;4452259;32;19933;-82
2022/12/20 08:46:49;;;;;;;;;;;;;;;;;;4450917;32;19940;-83
2022/12/20 08:49:14;;;;;;;;;;;;;;;;;;4451236;32;19947;-82
2022/12/20 08:51:40;;;;;;;;;;;;;;;;;;4450226;32;19981;-82
2022/12/20 08:54:05;;;;;;;;;;;;;;;;;;4448869;32;20039;-81
2022/12/20 08:56:30;;;;;;;;;;;;;;;;;;4450400;32;20230;-82
2022/12/20 08:58:55;;;;;;;;;;;;;;;;;;4448728;32;20035;-82
2022/12/20 09:01:20;;;;;;;;;;;;;;;;;;4449344;32;19944;-82
2022/12/20 09:03:45;;;;;;;;;;;;;;;;;;4451746;32;20388;-81
2022/12/20 09:06:11;;;;;;;;;;;;;;;;;;4450769;32;19936;-82
2022/12/20 09:08:36;;;;;;;;;;;;;;;;;;4451078;32;19948;-82
2022/12/20 09:11:01;;;;;;;;;;;;;;;;;;4449512;32;19970;-82
2022/12/20 09:13:26;;;;;;;;;;;;;;;;;;4452752;32;19982;-83
2022/12/20 09:15:51;;;;;;;;;;;;;;;;;;4451575;32;19940;-82
2022/12/20 09:18:16;;;;;;;;;;;;;;;;;;4453244;32;19973;-82
2022/12/20 09:20:43;;;;;;;;;;;;;;;;;;4451902;32;19943;-80
2022/12/20 09:23:08;;;;;;;;;;;;;;;;;;4451523;32;19948;-78
2022/12/20 09:25:33;;;;;;;;;;;;;;;;;;4453546;32;19947;-78
2022/12/20 09:27:58;;;;;;;;;;;;;;;;;;4451030;32;19932;-80
2022/12/20 09:30:24;;;;;;;;;;;;;;;;;;4454228;32;19932;-81
2022/12/20 09:32:49;;;;;;;;;;;;;;;;;;4453304;32;19936;-80
2022/12/20 09:35:14;;;;;;;;;;;;;;;;;;4455396;32;19940;-82
2022/12/20 09:37:40;;;;;;;;;;;;;;;;;;4455152;32;19953;-80
2022/12/20 09:40:05;;;;;;;;;;;;;;;;;;4455806;32;19932;-81
2022/12/20 09:42:30;;;;;;;;;;;;;;;;;;4454745;32;20094;-79
2022/12/20 09:44:55;;;;;;;;;;;;;;;;;;4454736;32;19932;-81
2022/12/20 09:47:20;;;;;;;;;;;;;;;;;;4454839;32;19988;-81
2022/12/20 09:49:45;;;;;;;;;;;;;;;;;;4455781;32;19964;-80
2022/12/20 09:52:11;;;;;;;;;;;;;;;;;;4459068;32;19932;-79
2022/12/20 09:54:36;;;;;;;;;;;;;;;;;;4463613;32;19972;-80
2022/12/20 09:57:01;;;;;;;;;;;;;;;;;;4465535;32;19965;-80
2022/12/20 09:59:26;;;;;;;;;;;;;;;;;;4463423;32;19969;-82
2022/12/20 10:01:51;;;;;;;;;;;;;;;;;;4462183;32;19953;-81
2022/12/20 10:04:17;;;;;;;;;;;;;;;;;;4460084;32;20328;-81
2022/12/20 10:06:42;;;;;;;;;;;;;;;;;;4459542;32;19933;-81
2022/12/20 10:09:07;;;;;;;;;;;;;;;;;;4457121;32;19929;-81
2022/12/20 10:11:32;;;;;;;;;;;;;;;;;;4455149;32;19967;-81
2022/12/20 10:13:57;;;;;;;;;;;;;;;;;;4455149;32;19945;-80
2022/12/20 10:16:22;;;;;;;;;;;;;;;;;;4454856;32;19932;-81
2022/12/20 10:18:47;;;;;;;;;;;;;;;;;;4454628;32;19951;-81
2022/12/20 10:21:13;;;;;;;;;;;;;;;;;;4455497;32;19984;-80
2022/12/20 10:23:38;;;;;;;;;;;;;;;;;;4454676;32;19951;-80
2022/12/20 10:26:03;;;;;;;;;;;;;;;;;;4453692;32;19951;-80
2022/12/20 10:28:28;;;;;;;;;;;;;;;;;;4454116;32;19937;-80
2022/12/20 10:30:53;;;;;;;;;;;;;;;;;;4455604;32;19933;-80
2022/12/20 10:33:18;;;;;;;;;;;;;;;;;;4453492;32;20104;-80
2022/12/20 10:35:44;;;;;;;;;;;;;;;;;;4454021;32;20281;-79
2022/12/20 10:38:11;;;;;;;;;;;;;;;;;;4455118;32;19936;-80
2022/12/20 10:40:36;;;;;;;;;;;;;;;;;;4454528;32;19964;-80
2022/12/20 10:43:01;;;;;;;;;;;;;;;;;;4454354;32;20369;-80
2022/12/20 10:45:26;;;;;;;;;;;;;;;;;;4454591;32;20302;-79
2022/12/20 10:47:51;;;;;;;;;;;;;;;;;;4454741;32;19944;-79
2022/12/20 10:50:17;;;;;;;;;;;;;;;;;;4454087;32;19982;-79
2022/12/20 10:52:42;;;;;;;;;;;;;;;;;;4455415;32;20264;-80
2022/12/20 10:55:07;;;;;;;;;;;;;;;;;;4454419;32;19954;-80
2022/12/20 10:57:32;;;;;;;;;;;;;;;;;;4454529;32;19952;-80
2022/12/20 10:59:57;;;;;;;;;;;;;;;;;;4454484;32;19969;-78
2022/12/20 11:02:22;;;;;;;;;;;;;;;;;;4454390;32;19986;-78
2022/12/20 11:04:47;;;;;;;;;;;;;;;;;;4455086;32;19966;-78
2022/12/20 11:07:13;;;;;;;;;;;;;;;;;;4455355;32;19932;-78
2022/12/20 11:09:38;;;;;;;;;;;;;;;;;;4454601;32;19978;-76
2022/12/20 11:12:04;;;;;;;;;;;;;;;;;;4456184;32;19932;-78
2022/12/20 11:14:29;;;;;;;;;;;;;;;;;;4463369;32;19936;-80
2022/12/20 11:16:54;;;;;;;;;;;;;;;;;;4454780;32;19932;-80
2022/12/20 11:19:19;;;;;;;;;;;;;;;;;;4453549;32;19940;-79
2022/12/20 11:21:44;;;;;;;;;;;;;;;;;;4452806;32;20314;-80
2022/12/20 11:24:09;;;;;;;;;;;;;;;;;;4451818;32;19937;-80
2022/12/20 11:26:35;;;;;;;;;;;;;;;;;;4452648;32;19947;-80
2022/12/20 11:29:00;;;;;;;;;;;;;;;;;;4454354;32;20276;-80
2022/12/20 11:31:26;;;;;;;;;;;;;;;;;;4453233;32;19947;-81
2022/12/20 11:33:51;;;;;;;;;;;;;;;;;;4454554;32;20015;-80
2022/12/20 11:36:16;;;;;;;;;;;;;;;;;;4454406;32;19937;-80
2022/12/20 11:38:42;;;;;;;;;;;;;;;;;;4454449;32;19965;-80
2022/12/20 11:41:07;;;;;;;;;;;;;;;;;;4455592;32;19947;-81
2022/12/20 11:43:32;;;;;;;;;;;;;;;;;;4454315;32;20314;-82
2022/12/20 11:45:57;;;;;;;;;;;;;;;;;;4453980;32;19940;-80
2022/12/20 11:48:22;;;;;;;;;;;;;;;;;;4455080;32;19940;-81
2022/12/20 11:50:47;;;;;;;;;;;;;;;;;;4455168;32;19932;-82
2022/12/20 11:53:13;;;;;;;;;;;;;;;;;;4453852;32;19947;-81
2022/12/20 11:55:38;;;;;;;;;;;;;;;;;;4452726;32;20270;-82
2022/12/20 11:58:03;;;;;;;;;;;;;;;;;;4455296;32;19933;-82
2022/12/20 12:00:29;;;;;;;;;;;;;;;;;;4453821;32;19940;-81
2022/12/20 12:02:54;;;;;;;;;;;;;;;;;;4453111;32;20241;-81
2022/12/20 12:05:19;;;;;;;;;;;;;;;;;;4454288;32;19933;-81
2022/12/20 12:07:45;;;;;;;;;;;;;;;;;;4454057;32;19937;-81
2022/12/20 12:10:10;;;;;;;;;;;;;;;;;;4454089;32;19963;-82
2022/12/20 12:12:35;;;;;;;;;;;;;;;;;;4454847;32;19932;-82
2022/12/20 12:15:00;;;;;;;;;;;;;;;;;;4454143;32;20312;-81
2022/12/20 12:17:25;;;;;;;;;;;;;;;;;;4453916;32;19979;-81
2022/12/20 12:19:50;;;;;;;;;;;;;;;;;;4454119;32;20347;-80
2022/12/20 12:22:16;;;;;;;;;;;;;;;;;;4455626;32;19959;-80
2022/12/20 12:24:41;;;;;;;;;;;;;;;;;;4457347;32;19941;-81
2022/12/20 12:27:06;;;;;;;;;;;;;;;;;;4459479;32;19967;-82
2022/12/20 12:29:31;;;;;;;;;;;;;;;;;;4456024;32;19944;-80
2022/12/20 12:31:56;;;;;;;;;;;;;;;;;;4460214;32;19936;-81
2022/12/20 12:34:21;;;;;;;;;;;;;;;;;;4458183;32;19998;-81
2022/12/20 12:36:47;;;;;;;;;;;;;;;;;;4452579;32;19967;-79
2022/12/20 12:39:12;;;;;;;;;;;;;;;;;;4451219;32;20063;-80
2022/12/20 12:41:37;;;;;;;;;;;;;;;;;;4454309;32;20316;-82
2022/12/20 12:44:02;;;;;;;;;;;;;;;;;;4452649;32;19937;-80
2022/12/20 12:46:27;;;;;;;;;;;;;;;;;;4453082;32;19947;-81
2022/12/20 12:48:52;;;;;;;;;;;;;;;;;;4451783;32;19956;-82
2022/12/20 12:51:17;;;;;;;;;;;;;;;;;;4451556;32;19940;-82
2022/12/20 12:53:43;;;;;;;;;;;;;;;;;;4452562;32;19959;-80
2022/12/20 12:56:08;;;;;;;;;;;;;;;;;;4453733;32;19932;-81
2022/12/20 12:58:33;;;;;;;;;;;;;;;;;;4453390;32;20246;-81
2022/12/20 13:00:58;;;;;;;;;;;;;;;;;;4456176;32;19933;-81
2022/12/20 13:03:23;;;;;;;;;;;;;;;;;;4452534;32;19936;-82
2022/12/20 13:05:49;;;;;;;;;;;;;;;;;;4456453;32;19932;-81
2022/12/20 13:08:14;;;;;;;;;;;;;;;;;;4456568;32;19984;-80
2022/12/20 13:10:39;;;;;;;;;;;;;;;;;;4456155;32;19947;-80
2022/12/20 13:13:04;;;;;;;;;;;;;;;;;;4456392;32;19937;-81
2022/12/20 13:15:31;;;;;;;;;;;;;;;;;;4454457;32;19973;-81
2022/12/20 13:17:56;;;;;;;;;;;;;;;;;;4456309;32;19971;-80
2022/12/20 13:20:21;;;;;;;;;;;;;;;;;;4456061;32;19941;-80
2022/12/20 13:22:47;;;;;;;;;;;;;;;;;;4461553;32;19967;-79
2022/12/20 13:25:12;;;;;;;;;;;;;;;;;;4464901;32;19937;-80
2022/12/20 13:27:37;;;;;;;;;;;;;;;;;;4466918;32;19982;-80
2022/12/20 13:30:03;;;;;;;;;;;;;;;;;;4465778;32;19932;-78
2022/12/20 13:32:28;;;;;;;;;;;;;;;;;;4462396;32;19936;-76
2022/12/20 13:34:53;;;;;;;;;;;;;;;;;;4459379;32;19936;-78
2022/12/20 13:37:18;;;;;;;;;;;;;;;;;;4459273;32;19932;-77
2022/12/20 13:39:43;;;;;;;;;;;;;;;;;;4456742;32;19973;-78
2022/12/20 13:42:08;;;;;;;;;;;;;;;;;;4455084;32;19940;-79
2022/12/20 13:44:34;;;;;;;;;;;;;;;;;;4456238;32;19955;-80
2022/12/20 13:46:59;;;;;;;;;;;;;;;;;;4455800;32;19936;-79
2022/12/20 13:49:24;;;;;;;;;;;;;;;;;;4457372;32;20000;-80
2022/12/20 13:51:49;;;;;;;;;;;;;;;;;;4457938;32;19947;-79
2022/12/20 13:54:14;;;;;;;;;;;;;;;;;;4456773;32;19937;-78
2022/12/20 13:56:39;;;;;;;;;;;;;;;;;;4457507;32;19933;-79
2022/12/20 13:59:04;;;;;;;;;;;;;;;;;;4456263;32;19951;-79
2022/12/20 14:01:30;;;;;;;;;;;;;;;;;;4456251;32;19960;-79
2022/12/20 14:03:55;;;;;;;;;;;;;;;;;;4454092;32;19964;-79
2022/12/20 14:06:20;;;;;;;;;;;;;;;;;;4455200;32;19946;-79
2022/12/20 14:08:45;;;;;;;;;;;;;;;;;;4454528;32;20375;-79
2022/12/20 14:11:10;;;;;;;;;;;;;;;;;;4455560;32;19940;-79
2022/12/20 14:13:35;;;;;;;;;;;;;;;;;;4455765;32;20082;-79
2022/12/20 14:16:00;;;;;;;;;;;;;;;;;;4453588;32;19941;-78
2022/12/20 14:18:26;;;;;;;;;;;;;;;;;;4455142;32;19940;-80
2022/12/20 14:20:51;;;;;;;;;;;;;;;;;;4457957;32;19952;-79
2022/12/20 14:23:16;;;;;;;;;;;;;;;;;;4455995;32;20014;-79
2022/12/20 14:25:41;;;;;;;;;;;;;;;;;;4455104;32;20005;-80
2022/12/20 14:28:06;;;;;;;;;;;;;;;;;;4455121;32;19940;-79
2022/12/20 14:30:31;;;;;;;;;;;;;;;;;;4455314;32;19971;-79
2022/12/20 14:32:56;;;;;;;;;;;;;;;;;;4455675;32;20257;-79
2022/12/20 14:35:22;;;;;;;;;;;;;;;;;;4456298;32;20226;-80
2022/12/20 14:37:47;;;;;;;;;;;;;;;;;;4458146;32;19936;-79
2022/12/20 14:40:12;;;;;;;;;;;;;;;;;;4457503;32;19939;-80
2022/12/20 14:42:37;;;;;;;;;;;;;;;;;;4457814;32;19948;-78
2022/12/20 14:45:02;;;;;;;;;;;;;;;;;;4457122;32;19932;-80
2022/12/20 14:47:27;;;;;;;;;;;;;;;;;;4457230;32;20302;-81
2022/12/20 14:49:53;;;;;;;;;;;;;;;;;;4457805;32;20324;-81
2022/12/20 14:52:18;;;;;;;;;;;;;;;;;;4458935;32;19940;-80
2022/12/20 14:54:43;;;;;;;;;;;;;;;;;;4458183;32;19969;-80
2022/12/20 14:57:08;;;;;;;;;;;;;;;;;;4456157;32;19932;-81
2022/12/20 14:59:33;;;;;;;;;;;;;;;;;;4455329;32;19941;-81
2022/12/20 15:01:58;;;;;;;;;;;;;;;;;;4455110;32;20334;-80
2022/12/20 15:04:23;;;;;;;;;;;;;;;;;;4456325;32;19947;-79
2022/12/20 15:06:48;;;;;;;;;;;;;;;;;;4455656;32;19948;-80
2022/12/20 15:09:14;;;;;;;;;;;;;;;;;;4455573;32;19936;-81
2022/12/20 15:11:39;;;;;;;;;;;;;;;;;;4460132;32;19932;-80
2022/12/20 15:14:04;;;;;;;;;;;;;;;;;;4454668;32;19944;-81
2022/12/20 15:16:29;;;;;;;;;;;;;;;;;;4456576;32;19962;-80
2022/12/20 15:18:54;;;;;;;;;;;;;;;;;;4455209;32;19940;-81
2022/12/20 15:21:19;;;;;;;;;;;;;;;;;;4454278;32;19979;-81
2022/12/20 15:23:44;;;;;;;;;;;;;;;;;;4455153;32;20304;-80
2022/12/20 15:26:09;;;;;;;;;;;;;;;;;;4453314;32;19932;-80
2022/12/20 15:28:35;;;;;;;;;;;;;;;;;;4454715;32;19972;-80
2022/12/20 15:31:00;;;;;;;;;;;;;;;;;;4455314;32;19969;-81
2022/12/20 15:33:25;;;;;;;;;;;;;;;;;;4453490;32;20322;-81
2022/12/20 15:35:50;;;;;;;;;;;;;;;;;;4453084;32;19975;-81
2022/12/20 15:38:15;;;;;;;;;;;;;;;;;;4454392;32;19956;-80
2022/12/20 15:40:40;;;;;;;;;;;;;;;;;;4452508;32;19987;-80
2022/12/20 15:43:05;;;;;;;;;;;;;;;;;;4452111;32;19945;-81
2022/12/20 15:45:30;;;;;;;;;;;;;;;;;;4453480;32;20327;-81
2022/12/20 15:47:56;;;;;;;;;;;;;;;;;;4452792;32;19936;-80
2022/12/20 15:50:21;;;;;;;;;;;;;;;;;;4452569;32;19933;-79
2022/12/20 15:52:46;;;;;;;;;;;;;;;;;;4452552;32;19932;-80
2022/12/20 15:55:11;;;;;;;;;;;;;;;;;;4453232;32;20351;-80
2022/12/20 15:57:37;;;;;;;;;;;;;;;;;;4450682;32;20019;-80
2022/12/20 16:00:02;;;;;;;;;;;;;;;;;;4450992;32;20344;-79
2022/12/20 16:02:27;;;;;;;;;;;;;;;;;;4452129;32;19951;-79
2022/12/20 16:04:52;;;;;;;;;;;;;;;;;;4452773;32;19932;-79
2022/12/20 16:07:17;;;;;;;;;;;;;;;;;;4452125;32;20301;-80
2022/12/20 16:09:42;;;;;;;;;;;;;;;;;;4453474;32;19973;-79
2022/12/20 16:12:08;;;;;;;;;;;;;;;;;;4453601;32;19937;-79
2022/12/20 16:14:33;;;;;;;;;;;;;;;;;;4451948;32;19941;-78
2022/12/20 16:16:58;;;;;;;;;;;;;;;;;;4450586;32;19937;-77
2022/12/20 16:19:23;;;;;;;;;;;;;;;;;;4452282;32;19971;-78
2022/12/20 16:21:48;;;;;;;;;;;;;;;;;;4451501;32;19932;-78
2022/12/20 16:24:13;;;;;;;;;;;;;;;;;;4452248;32;19983;-78
2022/12/20 16:26:39;;;;;;;;;;;;;;;;;;4452893;32;19971;-79
2022/12/20 16:29:04;;;;;;;;;;;;;;;;;;4453527;32;19947;-79
2022/12/20 16:31:29;;;;;;;;;;;;;;;;;;4454254;32;19939;-79
2022/12/20 16:33:54;;;;;;;;;;;;;;;;;;4452242;32;19995;-79
2022/12/20 16:36:20;;;;;;;;;;;;;;;;;;4454239;32;19980;-78